Список аэропортов
Фактическая погода:

25 июня, 11:30
Температура: +28°C (+28.0*)
Ветер: перем. 2 м/с
Давление: *764 мм
Без существ. явл.
Время (МСК)Темп. СВетерВлажностьДавлениеОблачностьОсадки
09:00+21С, 1 м/с59%1017 гПаясно
10:00+22С, 1 м/с53%1017 гПаясно
11:00+25С, 1 м/с47%1016 гПаясно
12:00+26С, 2 м/с39%1016 гПаясно
13:00+28С, 3 м/с37%1016 гПаясно
14:00+28С, 2 м/с34%1015 гПаясно
15:00+29С, 2 м/с32%1014 гПаясно
16:00+30С, 3 м/с30%1014 гПаясно
17:00+30СВ, 2 м/с28%1013 гПаясно
18:00+30СВ, 2 м/с27%1013 гПаясно
19:00+29СВ, 2 м/с28%1013 гПаясно
20:00+28ЮВ, 2 м/с32%1013 гПамалооблачно
21:00+26ЮВ, 2 м/с51%1014 гПамалооблачно
22:00+24ЮВ, 1 м/с63%1014 гПамалооблачно
23:00+23ЮЗ, 1 м/с68%1015 гПамалооблачно
26 июня
00:00+22ЮЗ, 2 м/с71%1015 гПамалооблачно
01:00+21Ю, 1 м/с75%1015 гПаоблачно
02:00+20Ю, 1 м/с82%1015 гПас прояснениями
03:00+18В, 1 м/с88%1015 гПаясно
04:00+18В, 1 м/с91%1015 гПаясно
05:00+17В, 1 м/с93%1014 гПаясно
06:00+16В, 1 м/с94%1015 гПаясно
07:00+18СВ, 1 м/с91%1014 гПаясно
08:00+20СВ, 2 м/с83%1014 гПаясно
09:00+22СВ, 2 м/с74%1014 гПаясно
10:00+24С, 2 м/с65%1013 гПаясно
11:00+26С, 1 м/с55%1013 гПаясно
12:00+29СЗ, 3 м/с44%1012 гПаясно
13:00+30СЗ, 4 м/с40%1012 гПаясно
14:00+31СЗ, 3 м/с37%1011 гПаясно
15:00+31СЗ, 2 м/с34%1011 гПамалооблачно
16:00+32СЗ, 2 м/с33%1010 гПамалооблачно
17:00+32СЗ, 2 м/с32%1010 гПамалооблачно
18:00+30СЗ, 4 м/с44%1011 гПамалооблачносл. дождь
19:00+28В, 2 м/с54%1012 гПас прояснениямидождь
20:00+27В, 2 м/с58%1012 гПаоблачно
21:00+26ЮВ, 2 м/с63%1012 гПаоблачно
22:00+24Ю, 1 м/с75%1013 гПас прояснениями
23:00+23ЮЗ, 2 м/с77%1013 гПаоблачно
27 июня
00:00+22З, 1 м/с81%1013 гПаоблачно
01:00+22ЮЗ, 2 м/с82%1014 гПаоблачно
02:00+21ЮЗ, 1 м/с85%1013 гПас прояснениями
03:00+20ЮЗ, 1 м/с87%1013 гПаоблачносл. дождь
04:00+20З, 2 м/с90%1014 гПаоблачнодождь
05:00+20З, 2 м/с90%1014 гПаоблачно
06:00+19З, 1 м/с93%1014 гПамалооблачно
07:00+19ЮЗ, 1 м/с90%1014 гПас прояснениями
08:00+20ЮЗ, 2 м/с87%1014 гПас прояснениями
09:00+22З, 1 м/с71%1014 гПамалооблачно